Time;durP1;ratioP1;P1;durP2;ratioP2;P2;SDS_P1;SDS_P2;PMS_P1;PMS_P2;Temp;Humidity;BMP_temperature;BMP_pressure;BME280_temperature;BME280_humidity;BME280_pressure;Samples;Min_cycle;Max_cycle;Signal;HPM_P1;HPM_P2
2024/01/02 00:01:37;;;;;;;17.02;2.20;;;8.30;99.90;;;;;;4977035;28;20030;-85
2024/01/02 00:04:03;;;;;;;16.45;2.03;;;8.30;99.90;;;;;;4977257;28;20042;-85
2024/01/02 00:06:29;;;;;;;15.57;2.33;;;8.30;99.90;;;;;;4976918;28;20122;-85
2024/01/02 00:08:55;;;;;;;21.90;2.40;;;8.30;99.90;;;;;;4977406;28;20081;-84
2024/01/02 00:11:21;;;;;;;14.98;2.33;;;8.30;99.90;;;;;;4976992;28;20480;-87
2024/01/02 00:13:47;;;;;;;18.70;2.88;;;8.30;99.90;;;;;;4979376;28;20449;-85
2024/01/02 00:16:13;;;;;;;14.15;2.08;;;8.30;99.90;;;;;;4998244;28;20102;-87
2024/01/02 00:18:38;;;;;;;15.95;2.10;;;8.20;99.90;;;;;;4964390;28;20098;-86
2024/01/02 00:21:04;;;;;;;17.33;2.63;;;8.20;99.90;;;;;;4980579;28;20030;-85
2024/01/02 00:23:30;;;;;;;17.17;2.22;;;8.20;99.90;;;;;;4966017;28;20153;-86
2024/01/02 00:25:56;;;;;;;14.38;1.77;;;8.10;99.90;;;;;;4986253;28;20054;-86
2024/01/02 00:28:22;;;;;;;13.52;2.35;;;8.10;99.90;;;;;;5005192;28;20031;-86
2024/01/02 00:30:47;;;;;;;13.57;2.03;;;8.20;99.90;;;;;;5000769;28;20022;-85
2024/01/02 00:33:13;;;;;;;16.65;2.22;;;8.10;99.90;;;;;;5001562;28;20034;-86
2024/01/02 00:35:39;;;;;;;15.73;2.28;;;8.10;99.90;;;;;;4981623;28;20042;-84
2024/01/02 00:38:07;;;;;;;15.15;1.77;;;8.10;99.90;;;;;;4980533;28;20026;-84
2024/01/02 00:40:33;;;;;;;11.32;1.80;;;8.10;99.90;;;;;;4981045;28;20049;-85
2024/01/02 00:42:59;;;;;;;17.50;2.20;;;8.10;99.90;;;;;;4980828;28;20396;-86
2024/01/02 00:45:24;;;;;;;17.80;2.03;;;8.10;99.90;;;;;;4998573;28;20026;-86
2024/01/02 00:47:51;;;;;;;12.93;1.70;;;8.10;99.90;;;;;;4997524;28;20052;-84
2024/01/02 00:50:18;;;;;;;18.20;2.85;;;8.10;99.90;;;;;;4963774;28;20129;-85
2024/01/02 00:52:43;;;;;;;14.27;2.40;;;8.10;99.90;;;;;;4979686;28;20034;-85
2024/01/02 00:55:09;;;;;;;15.15;1.77;;;8.10;99.90;;;;;;4981257;28;20045;-85
2024/01/02 00:57:35;;;;;;;21.00;2.85;;;8.10;99.90;;;;;;4999289;28;20030;-86
2024/01/02 01:00:02;;;;;;;18.13;2.17;;;8.00;99.90;;;;;;5001166;28;20035;-86
2024/01/02 01:02:28;;;;;;;12.98;2.08;;;8.00;99.90;;;;;;4979560;28;20030;-86
2024/01/02 01:04:53;;;;;;;16.40;2.08;;;8.00;99.90;;;;;;4981202;28;20118;-85
2024/01/02 01:07:19;;;;;;;12.93;2.15;;;8.10;99.90;;;;;;4980465;28;20088;-85
2024/01/02 01:09:44;;;;;;;13.23;1.35;;;8.10;99.90;;;;;;4997223;28;20038;-85
2024/01/02 01:12:10;;;;;;;15.38;1.77;;;8.10;99.90;;;;;;4982083;28;20030;-85
2024/01/02 01:14:36;;;;;;;10.52;1.30;;;8.10;99.90;;;;;;5000762;28;20039;-85
2024/01/02 01:17:04;;;;;;;10.82;1.25;;;8.10;99.90;;;;;;4965347;28;20041;-85
2024/01/02 01:19:29;;;;;;;11.05;1.65;;;8.10;99.90;;;;;;4979233;28;20054;-85
2024/01/02 01:21:55;;;;;;;13.93;2.15;;;8.10;99.90;;;;;;4979221;28;20030;-83
2024/01/02 01:24:21;;;;;;;14.13;1.70;;;8.20;99.90;;;;;;4964127;28;20050;-84
2024/01/02 01:26:47;;;;;;;13.55;1.50;;;8.10;99.90;;;;;;4980234;28;20037;-83
2024/01/02 01:29:12;;;;;;;12.00;1.83;;;8.20;99.90;;;;;;4980040;28;20646;-85
2024/01/02 01:31:38;;;;;;;11.10;1.15;;;8.10;99.90;;;;;;4963042;28;20365;-84
2024/01/02 01:34:04;;;;;;;14.88;2.05;;;8.10;99.90;;;;;;4998487;28;20061;-85
2024/01/02 01:36:29;;;;;;;10.40;1.25;;;8.10;99.90;;;;;;4978550;28;20031;-84
2024/01/02 01:38:55;;;;;;;13.40;1.38;;;8.20;99.90;;;;;;4963670;28;20536;-83
2024/01/02 01:41:21;;;;;;;9.43;1.10;;;8.10;99.90;;;;;;4965773;28;20088;-83
2024/01/02 01:43:47;;;;;;;9.98;1.27;;;8.10;99.90;;;;;;4996597;28;20038;-84
2024/01/02 01:46:15;;;;;;;9.57;1.45;;;8.10;99.90;;;;;;4997030;28;20133;-83
2024/01/02 01:48:41;;;;;;;10.90;1.17;;;8.10;99.90;;;;;;4996223;28;20061;-84
2024/01/02 01:51:07;;;;;;;7.40;0.70;;;8.20;99.90;;;;;;4982276;28;20101;-82
2024/01/02 01:53:34;;;;;;;8.50;1.02;;;8.20;99.90;;;;;;4980971;28;20117;-83
2024/01/02 01:56:00;;;;;;;8.55;0.88;;;8.20;99.90;;;;;;5001449;28;20077;-82
2024/01/02 01:58:27;;;;;;;9.60;0.75;;;8.20;99.90;;;;;;4982115;28;20026;-83
2024/01/02 02:00:52;;;;;;;7.10;1.17;;;8.20;99.90;;;;;;4987915;28;20031;-84
2024/01/02 02:03:19;;;;;;;8.07;0.80;;;8.20;99.90;;;;;;4997463;28;20050;-83
2024/01/02 02:05:45;;;;;;;7.88;1.73;;;8.10;99.90;;;;;;4997410;28;20042;-82
2024/01/02 02:08:12;;;;;;;8.90;0.60;;;8.20;99.90;;;;;;4996193;28;20040;-82
2024/01/02 02:10:37;;;;;;;3.63;0.70;;;8.20;99.90;;;;;;4996226;28;20026;-83
2024/01/02 02:13:03;;;;;;;5.97;0.60;;;8.20;99.90;;;;;;4977877;28;20039;-83
2024/01/02 02:15:29;;;;;;;7.20;0.70;;;8.20;99.90;;;;;;4962332;28;20066;-83
2024/01/02 02:17:54;;;;;;;5.90;0.45;;;8.20;99.90;;;;;;4978016;28;20030;-81
2024/01/02 02:20:20;;;;;;;8.43;0.50;;;8.20;99.90;;;;;;4978227;28;20054;-84
2024/01/02 02:22:50;;;;;;;9.55;0.75;;;8.20;99.90;;;;;;4995342;28;20035;-82
2024/01/02 02:25:16;;;;;;;3.92;0.50;;;8.20;99.90;;;;;;4996102;28;20046;-83
2024/01/02 02:27:44;;;;;;;6.03;0.60;;;8.20;99.90;;;;;;4978508;28;20034;-84
2024/01/02 02:30:10;;;;;;;6.88;0.90;;;8.20;99.90;;;;;;4978167;28;20121;-83
2024/01/02 02:32:35;;;;;;;7.13;0.82;;;8.20;99.90;;;;;;4978666;28;20041;-83
2024/01/02 02:35:01;;;;;;;4.85;0.30;;;8.20;99.90;;;;;;4977897;28;20035;-83
2024/01/02 02:37:27;;;;;;;3.72;0.30;;;8.20;99.90;;;;;;4996724;28;20077;-83
2024/01/02 02:39:52;;;;;;;4.47;0.20;;;8.20;99.90;;;;;;4995612;28;20088;-83
2024/01/02 02:42:18;;;;;;;4.35;0.32;;;8.20;99.90;;;;;;4962445;28;20065;-82
2024/01/02 02:44:44;;;;;;;3.42;0.20;;;8.20;99.90;;;;;;4962817;28;20108;-83
2024/01/02 02:47:10;;;;;;;2.83;0.30;;;8.20;99.90;;;;;;4978970;28;20026;-82
2024/01/02 02:49:37;;;;;;;2.95;0.20;;;8.20;99.90;;;;;;4963359;28;20034;-84
2024/01/02 02:52:03;;;;;;;2.70;0.20;;;8.20;99.90;;;;;;4997871;28;20062;-83
2024/01/02 02:54:28;;;;;;;2.40;0.20;;;8.20;99.90;;;;;;4979309;28;20042;-82
2024/01/02 02:56:54;;;;;;;3.30;0.25;;;8.30;99.90;;;;;;5003074;28;20384;-81
2024/01/02 02:59:20;;;;;;;3.55;0.20;;;8.20;99.90;;;;;;4987091;28;20121;-82
2024/01/02 03:01:45;;;;;;;4.55;0.28;;;8.20;99.90;;;;;;4967420;28;20113;-81
2024/01/02 03:04:11;;;;;;;2.88;0.22;;;8.20;99.90;;;;;;4983041;28;20030;-82
2024/01/02 03:06:37;;;;;;;2.63;0.20;;;8.20;99.90;;;;;;4980241;28;20037;-80
2024/01/02 03:09:03;;;;;;;1.58;0.10;;;8.20;99.90;;;;;;4981531;28;20031;-82
2024/01/02 03:11:29;;;;;;;2.72;0.20;;;8.30;99.90;;;;;;4969706;28;20061;-83
2024/01/02 03:13:55;;;;;;;1.88;0.17;;;8.20;99.90;;;;;;4998193;28;20396;-82
2024/01/02 03:16:21;;;;;;;1.08;0.10;;;8.20;99.90;;;;;;5002518;28;20038;-80
2024/01/02 03:18:47;;;;;;;2.00;0.10;;;8.20;99.90;;;;;;5005645;28;20042;-81
2024/01/02 03:21:13;;;;;;;1.02;0.10;;;8.20;99.90;;;;;;4984018;28;20039;-81
2024/01/02 03:23:38;;;;;;;3.00;0.22;;;8.20;99.90;;;;;;4999796;28;20042;-81
2024/01/02 03:26:05;;;;;;;2.70;0.10;;;8.20;99.90;;;;;;5000943;28;20046;-82
2024/01/02 03:28:31;;;;;;;1.13;0.10;;;8.20;99.90;;;;;;4995247;28;20096;-83
2024/01/02 03:30:57;;;;;;;1.05;0.10;;;8.30;99.90;;;;;;4996076;28;20517;-82
2024/01/02 03:33:22;;;;;;;1.15;0.10;;;8.20;99.90;;;;;;4995418;28;20034;-84
2024/01/02 03:35:48;;;;;;;3.08;0.65;;;8.30;99.90;;;;;;4996800;28;20042;-85
2024/01/02 03:38:15;;;;;;;1.92;0.10;;;8.30;99.90;;;;;;4977809;28;20449;-84
2024/01/02 03:40:40;;;;;;;2.22;0.10;;;8.20;99.90;;;;;;4996823;28;20030;-85
2024/01/02 03:43:06;;;;;;;3.33;0.05;;;8.20;99.90;;;;;;4994302;28;20377;-84
2024/01/02 03:45:32;;;;;;;1.67;0.00;;;8.20;99.90;;;;;;4994100;28;20109;-83
2024/01/02 03:48:00;;;;;;;1.13;0.00;;;8.20;99.90;;;;;;4993767;28;20039;-83
2024/01/02 03:50:26;;;;;;;0.55;0.00;;;8.30;99.90;;;;;;4977009;28;20064;-84
2024/01/02 03:52:51;;;;;;;1.83;0.85;;;8.30;99.90;;;;;;4976738;28;20069;-84
2024/01/02 03:55:17;;;;;;;1.95;0.10;;;8.20;99.90;;;;;;4993290;28;20508;-85
2024/01/02 03:57:43;;;;;;;0.95;0.10;;;8.20;99.90;;;;;;4994057;28;20039;-84
2024/01/02 04:00:09;;;;;;;0.82;0.00;;;8.20;99.90;;;;;;4993748;28;20133;-83
2024/01/02 04:02:35;;;;;;;0.65;0.00;;;8.20;99.90;;;;;;4975839;28;20042;-84
2024/01/02 04:05:03;;;;;;;1.20;0.10;;;8.30;99.90;;;;;;4976770;28;20057;-84
2024/01/02 04:07:29;;;;;;;1.13;0.10;;;8.30;99.90;;;;;;4976344;28;20026;-84
2024/01/02 04:09:54;;;;;;;0.30;0.00;;;8.20;99.90;;;;;;4994317;28;20500;-85
2024/01/02 04:12:20;;;;;;;1.27;0.08;;;8.20;99.90;;;;;;4976121;28;20125;-84
2024/01/02 04:14:45;;;;;;;0.28;0.03;;;8.30;99.90;;;;;;4960201;28;20045;-84
2024/01/02 04:17:11;;;;;;;1.48;0.10;;;8.30;99.90;;;;;;4993317;28;20030;-85
2024/01/02 04:19:37;;;;;;;0.75;0.10;;;8.40;99.90;;;;;;4993130;28;20473;-84
2024/01/02 04:22:02;;;;;;;0.30;0.00;;;8.40;99.90;;;;;;4976018;28;20101;-84
2024/01/02 04:24:28;;;;;;;0.80;0.03;;;8.40;99.90;;;;;;4994077;28;20052;-85
2024/01/02 04:26:54;;;;;;;0.55;0.00;;;8.40;99.90;;;;;;4976655;28;20037;-84
2024/01/02 04:29:19;;;;;;;0.55;0.00;;;8.40;99.90;;;;;;4994280;28;20039;-85
2024/01/02 04:31:45;;;;;;;0.25;0.00;;;8.40;99.90;;;;;;4976237;28;20105;-84
2024/01/02 04:34:10;;;;;;;1.08;0.00;;;8.40;99.90;;;;;;4993585;28;20069;-84
2024/01/02 04:36:36;;;;;;;0.43;0.00;;;8.50;99.90;;;;;;4976082;28;20444;-85
2024/01/02 04:39:03;;;;;;;0.45;0.00;;;8.50;99.90;;;;;;4993686;28;20031;-85
2024/01/02 04:41:28;;;;;;;0.25;0.00;;;8.50;99.90;;;;;;4993654;28;20049;-84
2024/01/02 04:43:54;;;;;;;1.85;0.00;;;8.50;99.90;;;;;;4975967;28;20034;-84
2024/01/02 04:46:20;;;;;;;0.00;0.00;;;8.60;99.90;;;;;;4960552;28;20476;-83
2024/01/02 04:48:45;;;;;;;0.00;0.00;;;8.50;99.90;;;;;;4976128;28;20088;-84
2024/01/02 04:51:11;;;;;;;0.00;0.00;;;8.60;99.90;;;;;;4957541;28;20035;-85
2024/01/02 04:53:36;;;;;;;0.17;0.00;;;8.70;99.90;;;;;;4977455;28;20138;-88
2024/01/02 04:56:02;;;;;;;0.05;0.00;;;8.70;99.90;;;;;;4976708;28;20096;-87
2024/01/02 04:58:28;;;;;;;0.10;0.00;;;8.70;99.90;;;;;;4994529;28;20038;-88
2024/01/02 05:00:54;;;;;;;0.52;0.10;;;8.70;99.90;;;;;;4977329;28;20030;-87
2024/01/02 05:03:20;;;;;;;0.47;0.00;;;8.70;99.90;;;;;;4993229;28;20487;-87
2024/01/02 05:05:46;;;;;;;0.93;0.00;;;8.70;99.90;;;;;;4994330;28;20034;-86
2024/01/02 05:08:11;;;;;;;0.70;0.10;;;8.80;99.90;;;;;;4980020;28;20084;-86
2024/01/02 05:10:37;;;;;;;0.77;0.00;;;8.80;99.90;;;;;;4999330;28;20037;-87
2024/01/02 05:13:03;;;;;;;0.45;0.10;;;8.80;99.90;;;;;;4967194;28;20142;-87
2024/01/02 05:15:28;;;;;;;0.00;0.00;;;8.80;99.90;;;;;;4999725;28;20088;-87
2024/01/02 05:17:54;;;;;;;0.52;0.10;;;8.90;99.90;;;;;;4981092;28;20041;-87
2024/01/02 05:20:20;;;;;;;0.38;0.10;;;8.90;99.90;;;;;;4998345;28;20477;-85
2024/01/02 05:22:45;;;;;;;0.20;0.00;;;8.90;99.90;;;;;;4998862;28;20089;-86
2024/01/02 05:25:11;;;;;;;0.30;0.10;;;9.00;99.90;;;;;;4964379;28;20049;-88
2024/01/02 05:27:37;;;;;;;0.15;0.10;;;9.00;99.90;;;;;;4999655;28;20046;-86
2024/01/02 05:30:03;;;;;;;0.10;0.10;;;9.00;99.90;;;;;;4997816;28;20045;-86
2024/01/02 05:32:29;;;;;;;0.75;0.20;;;9.00;99.90;;;;;;4980590;28;20030;-84
2024/01/02 05:34:54;;;;;;;0.20;0.10;;;9.00;99.90;;;;;;4999179;28;20089;-86
2024/01/02 05:37:20;;;;;;;0.10;0.10;;;9.10;99.90;;;;;;4981181;28;20485;-87
2024/01/02 05:39:46;;;;;;;0.30;0.20;;;9.10;99.90;;;;;;4964676;28;20366;-86
2024/01/02 05:42:11;;;;;;;0.22;0.10;;;9.20;99.90;;;;;;4963287;28;20038;-85
2024/01/02 05:44:37;;;;;;;0.22;0.20;;;9.20;99.90;;;;;;4997345;28;20109;-86
2024/01/02 05:47:03;;;;;;;0.32;0.20;;;9.20;99.90;;;;;;4979473;28;20540;-85
2024/01/02 05:49:29;;;;;;;0.30;0.20;;;9.30;99.90;;;;;;4980554;28;20105;-86
2024/01/02 05:51:56;;;;;;;0.40;0.20;;;9.30;99.90;;;;;;4964174;28;20073;-87
2024/01/02 05:54:22;;;;;;;0.43;0.20;;;9.30;99.90;;;;;;4979666;28;20030;-86
2024/01/02 05:56:47;;;;;;;0.30;0.20;;;9.30;99.90;;;;;;4979921;28;20031;-84
2024/01/02 05:59:13;;;;;;;0.30;0.20;;;9.40;99.90;;;;;;4997940;28;20382;-85
2024/01/02 06:01:38;;;;;;;0.68;0.30;;;9.50;99.90;;;;;;4981788;28;20126;-85
2024/01/02 06:04:04;;;;;;;0.55;0.30;;;9.50;99.90;;;;;;4980749;28;20030;-86
2024/01/02 06:06:30;;;;;;;0.40;0.30;;;9.50;99.90;;;;;;4979673;28;20496;-86
2024/01/02 06:08:55;;;;;;;0.40;0.30;;;9.50;99.90;;;;;;4959016;28;20121;-86
2024/01/02 06:11:21;;;;;;;0.30;0.30;;;9.60;99.90;;;;;;4960232;28;20031;-86
2024/01/02 06:13:47;;;;;;;0.60;0.43;;;9.60;99.90;;;;;;4974165;28;20125;-86
2024/01/02 06:16:12;;;;;;;0.90;0.40;;;9.70;99.90;;;;;;4963299;28;20505;-87
2024/01/02 06:18:38;;;;;;;0.60;0.47;;;9.70;99.90;;;;;;4995841;28;20097;-86
2024/01/02 06:21:04;;;;;;;0.70;0.50;;;9.80;99.90;;;;;;4995766;28;20129;-85
2024/01/02 06:23:33;;;;;;;0.73;0.63;;;9.80;99.90;;;;;;4994580;28;20026;-83
2024/01/02 06:25:59;;;;;;;0.60;0.50;;;9.90;99.90;;;;;;4995866;28;20038;-82
2024/01/02 06:28:25;;;;;;;1.10;1.00;;;10.00;99.90;;;;;;4996495;28;20030;-86
2024/01/02 06:30:51;;;;;;;2.25;0.73;;;10.00;99.90;;;;;;4995947;28;20041;-86
2024/01/02 06:33:17;;;;;;;2.22;1.00;;;10.00;99.90;;;;;;4995535;28;20038;-85
2024/01/02 06:35:43;;;;;;;1.33;1.23;;;10.10;99.90;;;;;;4978964;28;20048;-86
2024/01/02 06:38:11;;;;;;;1.38;1.27;;;10.10;99.90;;;;;;4995432;28;20470;-86
2024/01/02 06:40:37;;;;;;;1.95;1.80;;;10.10;99.90;;;;;;4995852;28;20030;-85
2024/01/02 06:43:04;;;;;;;1.90;1.73;;;10.20;99.90;;;;;;4962566;28;20378;-86
2024/01/02 06:45:31;;;;;;;2.40;2.10;;;10.20;99.90;;;;;;4979191;28;20488;-84
2024/01/02 06:47:57;;;;;;;3.60;3.30;;;10.30;99.90;;;;;;4996950;28;20069;-85
2024/01/02 06:50:22;;;;;;;4.13;3.60;;;10.30;99.90;;;;;;4995750;28;20105;-84
2024/01/02 06:52:48;;;;;;;5.22;3.97;;;10.30;99.90;;;;;;4980199;28;20031;-85
2024/01/02 06:55:14;;;;;;;6.13;4.43;;;10.40;99.90;;;;;;4996152;28;20428;-86
2024/01/02 06:57:40;;;;;;;5.00;4.50;;;10.40;99.90;;;;;;4995705;28;20035;-86
2024/01/02 07:00:06;;;;;;;7.72;5.05;;;10.50;99.90;;;;;;4977468;28;20038;-85
2024/01/02 07:02:33;;;;;;;8.80;5.90;;;10.50;99.90;;;;;;4977693;28;20030;-85
2024/01/02 07:05:03;;;;;;;7.22;5.47;;;10.60;99.90;;;;;;4976841;28;20066;-85
2024/01/02 07:07:28;;;;;;;12.40;5.88;;;10.60;99.90;;;;;;4994927;28;20038;-86
2024/01/02 07:09:54;;;;;;;7.50;5.72;;;10.60;99.90;;;;;;4995247;28;20030;-86
2024/01/02 07:12:19;;;;;;;11.65;5.72;;;10.60;99.90;;;;;;4977197;28;20036;-81
2024/01/02 07:14:45;;;;;;;12.73;6.88;;;10.70;99.90;;;;;;4995116;28;20050;-83
2024/01/02 07:17:11;;;;;;;10.85;6.10;;;10.70;99.90;;;;;;4994424;28;20374;-80
2024/01/02 07:19:36;;;;;;;14.98;6.25;;;10.70;99.90;;;;;;4993514;28;20432;-81
2024/01/02 07:22:02;;;;;;;10.15;6.05;;;10.80;99.90;;;;;;4976545;28;20550;-75
2024/01/02 07:24:31;;;;;;;12.75;6.35;;;10.80;99.90;;;;;;4992590;28;20241;-73
2024/01/02 07:26:56;;;;;;;16.55;5.38;;;10.90;99.90;;;;;;4993563;28;20038;-75
2024/01/02 07:29:22;;;;;;;14.55;5.20;;;10.90;99.90;;;;;;4976500;28;20409;-75
2024/01/02 07:32:08;;;;;;;12.95;4.70;;;10.90;99.90;;;;;;4994537;28;20049;-76
2024/01/02 07:34:37;;;;;;;15.88;4.90;;;11.00;99.90;;;;;;4958088;28;20093;-76
2024/01/02 07:37:03;;;;;;;18.55;4.43;;;11.00;99.90;;;;;;4976360;28;20089;-75
2024/01/02 07:39:29;;;;;;;21.13;4.53;;;11.00;99.90;;;;;;4975927;28;20504;-76
2024/01/02 07:41:54;;;;;;;16.42;3.80;;;11.00;99.90;;;;;;4976260;28;20038;-77
2024/01/02 07:44:21;;;;;;;11.82;3.40;;;11.00;99.90;;;;;;4993625;28;20030;-76
2024/01/02 07:46:47;;;;;;;18.20;3.55;;;11.10;99.90;;;;;;4993151;28;20492;-76
2024/01/02 07:49:13;;;;;;;26.08;3.38;;;11.10;99.90;;;;;;4974774;28;20039;-82
2024/01/02 07:51:39;;;;;;;19.38;3.55;;;11.10;99.90;;;;;;4975897;28;20028;-79
2024/01/02 07:54:04;;;;;;;18.02;3.88;;;11.10;99.90;;;;;;4993740;28;20085;-79
2024/01/02 07:56:32;;;;;;;19.67;2.88;;;11.10;99.90;;;;;;4993242;28;20042;-76
2024/01/02 07:58:58;;;;;;;18.60;3.50;;;11.20;99.90;;;;;;4994108;28;20113;-80
2024/01/02 08:01:23;;;;;;;17.70;3.25;;;11.20;99.90;;;;;;4992412;28;20109;-76
2024/01/02 08:03:49;;;;;;;24.02;3.25;;;11.20;99.90;;;;;;4992646;28;20049;-75
2024/01/02 08:06:15;;;;;;;19.10;2.65;;;11.20;99.90;;;;;;4992622;28;20488;-77
2024/01/02 08:08:40;;;;;;;18.45;2.78;;;11.20;99.90;;;;;;4992676;28;20030;-77
2024/01/02 08:11:08;;;;;;;18.60;2.80;;;11.20;99.90;;;;;;4975148;28;20042;-77
2024/01/02 08:13:34;;;;;;;22.98;2.55;;;11.20;99.90;;;;;;4992557;28;20058;-77
2024/01/02 08:16:00;;;;;;;25.33;3.00;;;11.20;99.90;;;;;;4992483;28;20120;-76
2024/01/02 08:18:25;;;;;;;14.48;3.00;;;11.30;99.90;;;;;;4991959;28;20097;-77
2024/01/02 08:20:51;;;;;;;18.55;2.60;;;11.30;99.90;;;;;;4973627;28;20050;-77
2024/01/02 08:23:16;;;;;;;22.05;2.72;;;11.30;99.90;;;;;;4992434;28;20034;-78
2024/01/02 08:25:42;;;;;;;22.17;3.35;;;11.30;99.90;;;;;;4991840;28;20042;-76
2024/01/02 08:28:08;;;;;;;16.67;2.38;;;11.30;99.90;;;;;;4991828;28;20109;-76
2024/01/02 08:30:33;;;;;;;22.85;3.45;;;11.40;99.90;;;;;;4974856;28;20391;-77
2024/01/02 08:32:59;;;;;;;16.75;2.83;;;11.40;99.90;;;;;;4989762;28;20472;-78
2024/01/02 08:35:25;;;;;;;21.23;3.20;;;11.40;99.90;;;;;;4975359;28;20443;-78
2024/01/02 08:37:50;;;;;;;25.90;5.25;;;11.40;99.90;;;;;;4991679;28;20033;-77
2024/01/02 08:40:16;;;;;;;20.45;3.47;;;11.40;99.90;;;;;;4992759;28;20031;-78
2024/01/02 08:42:42;;;;;;;24.15;3.38;;;11.40;99.90;;;;;;4992179;28;20492;-77
2024/01/02 08:45:10;;;;;;;17.23;2.80;;;11.40;99.90;;;;;;4971958;28;20046;-77
2024/01/02 08:47:38;;;;;;;21.02;3.17;;;11.40;99.90;;;;;;4994723;28;20042;-78
2024/01/02 08:50:07;;;;;;;25.40;3.88;;;11.50;99.90;;;;;;4977375;28;20100;-78
2024/01/02 08:52:35;;;;;;;27.63;4.40;;;11.50;99.90;;;;;;4995412;28;20427;-77
2024/01/02 08:55:04;;;;;;;23.17;3.67;;;11.50;99.90;;;;;;4995164;28;20038;-77
2024/01/02 08:57:31;;;;;;;22.90;3.85;;;11.50;99.90;;;;;;4994773;28;20407;-78
2024/01/02 08:59:57;;;;;;;30.30;3.45;;;11.50;99.90;;;;;;4995591;28;20027;-76
2024/01/02 09:02:23;;;;;;;32.70;4.57;;;11.50;99.90;;;;;;4995882;28;20030;-77
2024/01/02 09:04:49;;;;;;;24.33;3.45;;;11.50;99.90;;;;;;4996187;28;20037;-78
2024/01/02 09:07:14;;;;;;;25.27;4.40;;;11.60;99.90;;;;;;4962410;28;20038;-78
2024/01/02 09:09:40;;;;;;;26.95;4.07;;;11.60;99.90;;;;;;4977827;28;20053;-83
2024/01/02 09:12:08;;;;;;;31.38;5.10;;;11.60;99.90;;;;;;4978427;28;20457;-83
2024/01/02 09:14:35;;;;;;;37.58;5.05;;;11.60;99.90;;;;;;4976707;28;20038;-79
2024/01/02 09:17:01;;;;;;;26.60;3.75;;;11.60;99.90;;;;;;4978547;28;20400;-77
2024/01/02 09:19:26;;;;;;;27.45;3.78;;;11.60;99.90;;;;;;4995028;28;20133;-78
2024/01/02 09:21:52;;;;;;;30.90;4.07;;;11.60;99.90;;;;;;4995314;28;20100;-77
2024/01/02 09:24:20;;;;;;;28.40;4.30;;;11.60;99.90;;;;;;4998832;28;20117;-77
2024/01/02 09:26:48;;;;;;;29.45;3.60;;;11.60;99.90;;;;;;4993567;28;20038;-77
2024/01/02 09:29:14;;;;;;;28.98;3.70;;;11.60;99.90;;;;;;4975473;28;20061;-77
2024/01/02 09:31:43;;;;;;;27.92;4.72;;;11.70;99.90;;;;;;4995560;28;20461;-79
2024/01/02 09:34:10;;;;;;;30.38;4.75;;;11.70;99.90;;;;;;4992161;28;20027;-77
2024/01/02 09:36:36;;;;;;;27.42;3.90;;;11.70;99.90;;;;;;4978140;28;20053;-77
2024/01/02 09:39:02;;;;;;;24.42;3.75;;;11.70;99.90;;;;;;4994610;28;20101;-76
2024/01/02 09:41:57;;;;;;;28.00;3.67;;;11.70;99.90;;;;;;4994953;28;20156;-75
2024/01/02 09:44:56;;;;;;;28.02;3.35;;;11.80;99.90;;;;;;4978765;28;20042;-76
2024/01/02 09:47:49;;;;;;;23.13;3.78;;;11.80;99.90;;;;;;4994101;28;20050;-75
2024/01/02 09:50:27;;;;;;;21.73;3.35;;;11.80;99.90;;;;;;4992850;28;20038;-77
2024/01/02 09:53:23;;;;;;;24.75;3.72;;;11.80;99.90;;;;;;4977361;28;20077;-76
2024/01/02 09:55:53;;;;;;;26.95;4.00;;;11.80;99.90;;;;;;4993309;28;20130;-76
2024/01/02 09:58:47;;;;;;;25.42;5.15;;;11.80;99.90;;;;;;4993866;28;20041;-77
2024/01/02 10:01:24;;;;;;;26.75;4.63;;;11.90;99.90;;;;;;4994775;28;20057;-76
2024/01/02 10:04:22;;;;;;;23.80;4.63;;;11.80;99.90;;;;;;4994922;28;20420;-77
2024/01/02 10:07:03;;;;;;;25.08;4.85;;;11.90;99.90;;;;;;4978612;28;20033;-77
2024/01/02 10:09:41;;;;;;;22.05;4.00;;;11.80;99.90;;;;;;4977017;28;20022;-76
2024/01/02 10:12:27;;;;;;;23.75;4.30;;;11.80;99.90;;;;;;4994948;28;20041;-77
2024/01/02 10:14:59;;;;;;;21.75;4.70;;;11.90;99.90;;;;;;4991431;28;20039;-77
2024/01/02 10:17:57;;;;;;;16.83;5.25;;;11.90;99.90;;;;;;4994857;28;20492;-76
2024/01/02 10:20:29;;;;;;;25.38;6.90;;;11.90;99.90;;;;;;4991632;28;20050;-77
2024/01/02 10:23:02;;;;;;;14.43;6.13;;;11.90;99.90;;;;;;4973400;28;20047;-77
2024/01/02 10:25:29;;;;;;;18.10;6.83;;;11.90;99.90;;;;;;4988184;28;20101;-77
2024/01/02 10:28:15;;;;;;;18.10;7.20;;;12.00;99.90;;;;;;4995439;28;20023;-77
2024/01/02 10:31:03;;;;;;;20.98;8.13;;;12.00;99.90;;;;;;4994734;28;20048;-76
2024/01/02 10:33:37;;;;;;;18.88;7.03;;;12.00;99.90;;;;;;4988898;28;20392;-77
2024/01/02 10:36:09;;;;;;;21.25;7.68;;;12.00;99.90;;;;;;4977401;28;20038;-77
2024/01/02 10:38:57;;;;;;;16.83;7.40;;;11.90;99.90;;;;;;4993097;28;20038;-77
2024/01/02 10:41:22;;;;;;;18.20;8.25;;;11.90;99.90;;;;;;4992946;28;20077;-76
2024/01/02 10:44:22;;;;;;;11.50;7.35;;;11.90;99.90;;;;;;4976826;28;20085;-79
2024/01/02 10:47:17;;;;;;;15.85;7.18;;;11.90;99.90;;;;;;4975293;28;20525;-77
2024/01/02 10:49:54;;;;;;;16.33;7.93;;;12.00;99.90;;;;;;4993941;28;20065;-75
2024/01/02 10:52:28;;;;;;;13.35;7.35;;;12.00;99.90;;;;;;4977036;28;20036;-75
2024/01/02 10:55:10;;;;;;;11.73;7.10;;;12.00;99.90;;;;;;4992478;28;20038;-75
2024/01/02 10:58:10;;;;;;;11.02;6.40;;;12.00;99.90;;;;;;4975356;28;20456;-77
2024/01/02 11:01:04;;;;;;;7.57;5.55;;;12.00;99.90;;;;;;4939220;28;20365;-76
2024/01/02 11:03:39;;;;;;;8.80;6.20;;;12.00;99.90;;;;;;4981754;28;20046;-76
2024/01/02 11:06:08;;;;;;;10.15;5.03;;;12.00;99.90;;;;;;4995861;28;20052;-77
2024/01/02 11:08:51;;;;;;;8.60;4.55;;;12.00;99.90;;;;;;4995372;28;20036;-76
2024/01/02 11:11:17;;;;;;;;;;;12.00;99.90;;;;;;4977442;28;20030;-77
2024/01/02 11:13:46;;;;;;;8.35;4.03;;;12.00;99.90;;;;;;4993078;28;19928;-78
2024/01/02 11:16:17;;;;;;;3.53;2.90;;;11.90;99.90;;;;;;4955478;28;20093;-77
2024/01/02 11:18:50;;;;;;;4.38;3.00;;;11.90;99.90;;;;;;4993533;28;20030;-76
2024/01/02 11:21:24;;;;;;;4.20;2.92;;;11.90;99.90;;;;;;4994082;28;20117;-77
2024/01/02 11:23:53;;;;;;;3.10;1.98;;;11.90;99.90;;;;;;4992870;28;20064;-78
2024/01/02 11:26:29;;;;;;;3.00;1.70;;;11.90;99.90;;;;;;4992330;28;20052;-75
2024/01/02 11:29:00;;;;;;;2.17;1.45;;;11.90;99.90;;;;;;4973247;28;20393;-73
2024/01/02 11:31:29;;;;;;;2.30;1.50;;;11.90;99.90;;;;;;4993893;28;20026;-81
2024/01/02 11:34:26;;;;;;;1.65;1.30;;;11.90;99.90;;;;;;4973946;28;20080;-75
2024/01/02 11:37:19;;;;;;;1.27;0.80;;;11.90;99.90;;;;;;4993157;28;20053;-72
2024/01/02 11:40:00;;;;;;;2.03;0.90;;;11.90;99.90;;;;;;4965821;28;20163;-73
2024/01/02 11:42:58;;;;;;;1.30;0.90;;;11.90;99.90;;;;;;4975683;28;20030;-73
2024/01/02 11:45:29;;;;;;;2.42;0.82;;;11.80;99.90;;;;;;4992348;28;20046;-78
2024/01/02 11:48:25;;;;;;;1.10;0.50;;;11.90;99.90;;;;;;4975841;28;20089;-76
2024/01/02 11:50:55;;;;;;;0.77;0.55;;;11.80;99.90;;;;;;4991181;28;20035;-75
2024/01/02 11:53:51;;;;;;;2.28;0.75;;;11.90;99.90;;;;;;4992015;28;20401;-76
2024/01/02 11:56:18;;;;;;;1.05;0.40;;;11.90;99.90;;;;;;4984719;28;20050;-74
2024/01/02 11:59:05;;;;;;;0.90;0.40;;;11.90;99.90;;;;;;4991527;28;20096;-75
2024/01/02 12:02:04;;;;;;;0.52;0.35;;;11.90;99.90;;;;;;4993556;28;20027;-75
2024/01/02 12:04:36;;;;;;;1.17;0.32;;;11.90;99.90;;;;;;4993102;28;20037;-75
2024/01/02 12:07:16;;;;;;;1.67;0.40;;;11.80;99.90;;;;;;4992816;28;20105;-75
2024/01/02 12:09:48;;;;;;;2.20;0.80;;;11.90;99.90;;;;;;4975442;28;20450;-75
2024/01/02 12:12:40;;;;;;;4.20;2.60;;;11.90;99.90;;;;;;4975427;28;20030;-75
2024/01/02 12:15:15;;;;;;;5.63;2.63;;;11.90;99.90;;;;;;4992672;28;20073;-75
2024/01/02 12:17:53;;;;;;;2.20;0.30;;;11.90;99.90;;;;;;4960287;28;20428;-75
2024/01/02 12:20:20;;;;;;;1.35;0.20;;;11.80;99.90;;;;;;4991963;28;20057;-75
2024/01/02 12:22:48;;;;;;;0.98;0.30;;;11.90;99.90;;;;;;4992604;28;20084;-75
2024/01/02 12:25:20;;;;;;;0.45;0.10;;;11.90;99.90;;;;;;4990388;28;20053;-75
2024/01/02 12:27:49;;;;;;;1.10;0.30;;;11.80;99.90;;;;;;4990670;28;20049;-75
2024/01/02 12:31:07;;;;;;;0.70;0.40;;;11.80;99.90;;;;;;4992733;28;20050;-75
2024/01/02 12:33:35;;;;;;;0.30;0.10;;;11.80;99.90;;;;;;4973426;28;20039;-74
2024/01/02 12:36:16;;;;;;;0.35;0.20;;;11.80;99.90;;;;;;4974995;28;20054;-75
2024/01/02 12:38:49;;;;;;;0.50;0.32;;;11.80;99.90;;;;;;4992600;28;20038;-76
2024/01/02 12:41:20;;;;;;;0.70;0.30;;;11.70;99.90;;;;;;4990766;28;20093;-75
2024/01/02 12:43:51;;;;;;;0.40;0.30;;;11.70;99.90;;;;;;4992663;28;20038;-75
2024/01/02 12:46:24;;;;;;;1.60;0.30;;;11.70;99.90;;;;;;4990535;28;20507;-76
2024/01/02 12:49:10;;;;;;;0.65;0.30;;;11.70;99.90;;;;;;4991606;28;20084;-75
2024/01/02 12:51:37;;;;;;;0.90;0.20;;;11.60;99.90;;;;;;4992390;28;20050;-76
2024/01/02 12:54:08;;;;;;;2.63;0.20;;;11.60;99.90;;;;;;4974871;28;20030;-77
2024/01/02 12:56:39;;;;;;;0.40;0.20;;;11.60;99.90;;;;;;4992289;28;20049;-76
2024/01/02 12:59:06;;;;;;;0.40;0.20;;;11.60;99.90;;;;;;4991846;28;20029;-76